Nanticoke — VCQL — position and weather

sailwx.info

Track history (hours):
 
Tides and Currents Weather Stations Pressure Air Temp Water Temp Dewpoint Dewpoint Depression Visibility Wind Speed Wind Dir Waves Ship Positions

Nanticoke

Last reported at 2014-Sep-02 14:23 UTC. Time now 2014-Sep-02 18:56 UTC.
Position N 47°37' W 070°03'.

Length 222 m; draft 7.4 m.

Type: Cargo ship. MMSI: 316043000.

Date/timePositionNaut miles runAvg speedWind from/ knotsBaromVisibWave heightAir tempDewpointWater temp
2014-Sep-02 14:23N 47°37' W 070°03'1012.1
2014-Sep-02 13:32N 47°29' W 070°12'1010.7
2014-Sep-02 12:33N 47°25' W 070°26'1010.2
2014-Sep-02 11:33N 47°16' W 070°33'1211.8
2014-Sep-02 10:33N 47°06' W 070°43'1413.9
2014-Sep-02 09:33N 46°54' W 070°53'1413.9
2014-Sep-02 08:33N 46°49' W 071°12'1313.5
2014-Sep-02 07:33N 46°42' W 071°29'1212.0
2014-Sep-02 06:32N 46°39' W 071°47'10 9.7
2014-Sep-02 05:33N 46°36' W 071°60'1111.4
2014-Sep-02 04:33N 46°30' W 072°14'1212.4
2014-Sep-02 03:33N 46°23' W 072°28'1211.8
2014-Sep-02 02:33N 46°16' W 072°42'1312.6
2014-Sep-02 01:33N 46°09' W 072°57'1212.1
2014-Sep-02 00:33N 46°01' W 073°10'1313.1
2014-Sep-01 23:33N 45°49' W 073°18'1313.3
2014-Sep-01 22:33N 45°38' W 073°29'1 1.5
2014-Sep-01 21:33N 45°37' W 073°30'0 0.0
2014-Sep-01 20:33N 45°37' W 073°30'0 0.0
2014-Sep-01 19:33N 45°37' W 073°30'0 0.0
2014-Sep-01 18:33N 45°37' W 073°30'0 0.0
2014-Sep-01 17:33N 45°37' W 073°30'0 0.0
2014-Sep-01 16:33N 45°37' W 073°30'0 0.1
2014-Sep-01 15:33N 45°37' W 073°30'0 0.0
2014-Sep-01 14:33N 45°37' W 073°30'0 0.0
2014-Sep-01 13:33N 45°37' W 073°30'0 0.0
2014-Sep-01 12:33N 45°37' W 073°30'0 0.0
2014-Sep-01 11:33N 45°37' W 073°30'0 0.0
2014-Sep-01 10:33N 45°37' W 073°30'0 0.0
2014-Sep-01 09:33N 45°37' W 073°30'2 2.2
2014-Sep-01 08:33N 45°39' W 073°29'8 8.3
2014-Sep-01 07:33N 45°46' W 073°23'9 8.9
2014-Sep-01 06:33N 45°53' W 073°15'9 8.8
2014-Sep-01 05:33N 46°01' W 073°10'8 8.3
2014-Sep-01 04:33N 46°05' W 072°60'9 8.7
2014-Sep-01 03:33N 46°12' W 072°51'9 9.5
2014-Sep-01 02:33N 46°16' W 072°39'8 8.1
2014-Sep-01 01:33N 46°21' W 072°30'9 8.7
2014-Sep-01 00:33N 46°26' W 072°20'8 8.0
2014-Aug-31 23:33N 46°32' W 072°11'7 6.6
2014-Aug-31 22:33N 46°34' W 072°03'7 6.7
2014-Aug-31 21:33N 46°39' W 071°55'7 7.0
2014-Aug-31 20:32N 46°39' W 071°45'8 8.6
2014-Aug-31 19:33N 46°41' W 071°33'7 7.5
2014-Aug-31 18:33N 46°43' W 071°23'7 7.4
2014-Aug-31 17:33N 46°47' W 071°13'8 7.6
2014-Aug-31 16:33N 46°51' W 071°03'1110.7
2014-Aug-31 15:33N 46°57' W 070°51'1111.2
2014-Aug-31 14:33N 47°07' W 070°42'1211.7
2014-Aug-31 13:33N 47°16' W 070°33'1312.7
2014-Aug-31 12:33N 47°27' W 070°21'1312.2
2014-Aug-31 11:31N 47°35' W 070°07'1212.1
2014-Aug-31 10:33N 47°44' W 069°56'1211.9
2014-Aug-31 09:33N 47°54' W 069°48'1413.8
2014-Aug-31 08:33N 48°06' W 069°36'1212.1
2014-Aug-31 07:33N 48°16' W 069°26'1210.6
2014-Aug-31 06:26N 48°24' W 069°14'1112.8
2014-Aug-31 05:33N 48°31' W 069°00'1211.9
2014-Aug-31 04:33N 48°38' W 068°45'1211.6
2014-Aug-31 03:33N 48°44' W 068°30'1211.8
2014-Aug-31 02:33N 48°50' W 068°15'1111.2
2014-Aug-31 01:33N 48°57' W 068°01'1111.5
2014-Aug-31 00:33N 49°03' W 067°47'1211.6
2014-Aug-30 23:33N 49°09' W 067°32'1111.2
2014-Aug-30 22:33N 49°14' W 067°16'1211.5
2014-Aug-30 21:33N 49°17' W 066°59'1211.8
2014-Aug-30 20:33N 49°20' W 066°42'1212.1
2014-Aug-30 19:33N 49°22' W 066°24'1211.9
2014-Aug-30 18:33N 49°25' W 066°06'  
2014-Aug-26 06:20N 47°18' W 052°39'1113.1
2014-Aug-26 05:29N 47°29' W 052°35'7 7.3
2014-Aug-26 04:30N 47°34' W 052°42'0 0.0
2014-Aug-26 03:29N 47°34' W 052°42'0 0.0
2014-Aug-26 02:32N 47°34' W 052°42'0 0.1
2014-Aug-26 01:31N 47°34' W 052°42'5 5.6
2014-Aug-26 00:33N 47°31' W 052°36'1411.8
2014-Aug-25 23:24N 47°18' W 052°42'  
Track history (hours):
 
Tides and Currents Weather Stations Pressure Air Temp Water Temp Dewpoint Dewpoint Depression Visibility Wind Speed Wind Dir Waves Ship Positions

Nanticoke

Last reported at 2014-Sep-02 14:23 UTC. Time now 2014-Sep-02 18:56 UTC.
Position N 47°37' W 070°03'.

Length 222 m; draft 7.4 m.

Type: Cargo ship. MMSI: 316043000.

Date/timePositionNaut miles runAvg speedWind from/ knotsBaromVisibWave heightAir tempDewpointWater temp
2014-Sep-02 14:23N 47°37' W 070°03'1012.1
2014-Sep-02 13:32N 47°29' W 070°12'1010.7
2014-Sep-02 12:33N 47°25' W 070°26'1010.2
2014-Sep-02 11:33N 47°16' W 070°33'1211.8
2014-Sep-02 10:33N 47°06' W 070°43'1413.9
2014-Sep-02 09:33N 46°54' W 070°53'1413.9
2014-Sep-02 08:33N 46°49' W 071°12'1313.5
2014-Sep-02 07:33N 46°42' W 071°29'1212.0
2014-Sep-02 06:32N 46°39' W 071°47'10 9.7
2014-Sep-02 05:33N 46°36' W 071°60'1111.4
2014-Sep-02 04:33N 46°30' W 072°14'1212.4
2014-Sep-02 03:33N 46°23' W 072°28'1211.8
2014-Sep-02 02:33N 46°16' W 072°42'1312.6
2014-Sep-02 01:33N 46°09' W 072°57'1212.1
2014-Sep-02 00:33N 46°01' W 073°10'1313.1
2014-Sep-01 23:33N 45°49' W 073°18'1313.3
2014-Sep-01 22:33N 45°38' W 073°29'1 1.5
2014-Sep-01 21:33N 45°37' W 073°30'0 0.0
2014-Sep-01 20:33N 45°37' W 073°30'0 0.0
2014-Sep-01 19:33N 45°37' W 073°30'0 0.0
2014-Sep-01 18:33N 45°37' W 073°30'0 0.0
2014-Sep-01 17:33N 45°37' W 073°30'0 0.0
2014-Sep-01 16:33N 45°37' W 073°30'0 0.1
2014-Sep-01 15:33N 45°37' W 073°30'0 0.0
2014-Sep-01 14:33N 45°37' W 073°30'0 0.0
2014-Sep-01 13:33N 45°37' W 073°30'0 0.0
2014-Sep-01 12:33N 45°37' W 073°30'0 0.0
2014-Sep-01 11:33N 45°37' W 073°30'0 0.0
2014-Sep-01 10:33N 45°37' W 073°30'0 0.0
2014-Sep-01 09:33N 45°37' W 073°30'2 2.2
2014-Sep-01 08:33N 45°39' W 073°29'8 8.3
2014-Sep-01 07:33N 45°46' W 073°23'9 8.9
2014-Sep-01 06:33N 45°53' W 073°15'9 8.8
2014-Sep-01 05:33N 46°01' W 073°10'8 8.3
2014-Sep-01 04:33N 46°05' W 072°60'9 8.7
2014-Sep-01 03:33N 46°12' W 072°51'9 9.5
2014-Sep-01 02:33N 46°16' W 072°39'8 8.1
2014-Sep-01 01:33N 46°21' W 072°30'9 8.7
2014-Sep-01 00:33N 46°26' W 072°20'8 8.0
2014-Aug-31 23:33N 46°32' W 072°11'7 6.6
2014-Aug-31 22:33N 46°34' W 072°03'7 6.7
2014-Aug-31 21:33N 46°39' W 071°55'7 7.0
2014-Aug-31 20:32N 46°39' W 071°45'8 8.6
2014-Aug-31 19:33N 46°41' W 071°33'7 7.5
2014-Aug-31 18:33N 46°43' W 071°23'7 7.4
2014-Aug-31 17:33N 46°47' W 071°13'8 7.6
2014-Aug-31 16:33N 46°51' W 071°03'1110.7
2014-Aug-31 15:33N 46°57' W 070°51'1111.2
2014-Aug-31 14:33N 47°07' W 070°42'1211.7
2014-Aug-31 13:33N 47°16' W 070°33'1312.7
2014-Aug-31 12:33N 47°27' W 070°21'1312.2
2014-Aug-31 11:31N 47°35' W 070°07'1212.1
2014-Aug-31 10:33N 47°44' W 069°56'1211.9
2014-Aug-31 09:33N 47°54' W 069°48'1413.8
2014-Aug-31 08:33N 48°06' W 069°36'1212.1
2014-Aug-31 07:33N 48°16' W 069°26'1210.6
2014-Aug-31 06:26N 48°24' W 069°14'1112.8
2014-Aug-31 05:33N 48°31' W 069°00'1211.9
2014-Aug-31 04:33N 48°38' W 068°45'1211.6
2014-Aug-31 03:33N 48°44' W 068°30'1211.8
2014-Aug-31 02:33N 48°50' W 068°15'1111.2
2014-Aug-31 01:33N 48°57' W 068°01'1111.5
2014-Aug-31 00:33N 49°03' W 067°47'1211.6
2014-Aug-30 23:33N 49°09' W 067°32'1111.2
2014-Aug-30 22:33N 49°14' W 067°16'1211.5
2014-Aug-30 21:33N 49°17' W 066°59'1211.8
2014-Aug-30 20:33N 49°20' W 066°42'1212.1
2014-Aug-30 19:33N 49°22' W 066°24'1211.9
2014-Aug-30 18:33N 49°25' W 066°06'  
2014-Aug-26 06:20N 47°18' W 052°39'1113.1
2014-Aug-26 05:29N 47°29' W 052°35'7 7.3
2014-Aug-26 04:30N 47°34' W 052°42'0 0.0
2014-Aug-26 03:29N 47°34' W 052°42'0 0.0
2014-Aug-26 02:32N 47°34' W 052°42'0 0.1
2014-Aug-26 01:31N 47°34' W 052°42'5 5.6
2014-Aug-26 00:33N 47°31' W 052°36'1411.8
2014-Aug-25 23:24N 47°18' W 052°42'  

Dump ship's entire track history